createdAt,value
2018-01-15T00:01:57.325Z,41.83
2018-01-15T00:04:25.637Z,46.87
2018-01-15T00:06:54.706Z,46.43
2018-01-15T00:09:23.004Z,45.13
2018-01-15T00:11:51.351Z,38.10
2018-01-15T00:14:19.740Z,38.77
2018-01-15T00:16:48.080Z,48.33
2018-01-15T00:19:17.151Z,42.30
2018-01-15T00:21:45.459Z,40.63
2018-01-15T00:24:14.007Z,39.47
2018-01-15T00:26:42.341Z,41.43
2018-01-15T00:29:10.667Z,41.77
2018-01-15T00:31:38.981Z,41.93
2018-01-15T00:34:08.073Z,40.23
2018-01-15T00:36:36.395Z,36.73
2018-01-15T00:39:04.695Z,40.17
2018-01-15T00:41:33.005Z,44.10
2018-01-15T00:44:01.301Z,41.40
2018-01-15T00:46:30.487Z,40.77
2018-01-15T00:48:58.829Z,44.30
2018-01-15T00:51:27.155Z,41.00
2018-01-15T00:53:56.253Z,42.30
2018-01-15T00:56:24.565Z,39.87
2018-01-15T00:58:53.645Z,41.97
2018-01-15T01:01:21.976Z,40.80
2018-01-15T01:03:50.275Z,41.50
2018-01-15T01:06:18.597Z,41.43
2018-01-15T01:08:47.672Z,47.50
2018-01-15T01:11:15.971Z,41.60
2018-01-15T01:13:45.035Z,39.13
2018-01-15T01:16:13.365Z,42.60
2018-01-15T01:18:42.553Z,40.43
2018-01-15T01:21:10.839Z,44.90
2018-01-15T01:23:39.921Z,40.33
2018-01-15T01:26:08.227Z,42.70
2018-01-15T01:28:37.291Z,40.70
2018-01-15T01:31:05.671Z,40.20
2018-01-15T01:33:33.983Z,41.23
2018-01-15T01:36:03.867Z,41.07
2018-01-15T01:38:32.202Z,39.00
2018-01-15T01:41:00.507Z,38.13
2018-01-15T01:43:28.839Z,45.80
2018-01-15T01:45:57.240Z,41.43
2018-01-15T01:48:26.369Z,41.37
2018-01-15T01:50:54.692Z,42.63
2018-01-15T01:53:22.987Z,40.93
2018-01-15T01:55:51.325Z,43.03
2018-01-15T01:58:19.625Z,43.27
2018-01-15T02:00:47.922Z,45.50
2018-01-15T02:03:16.255Z,37.50
2018-01-15T02:05:44.564Z,43.67
2018-01-15T02:08:12.887Z,44.27
2018-01-15T02:10:41.954Z,48.20
2018-01-15T02:13:10.263Z,43.37
2018-01-15T02:15:39.353Z,49.50
2018-01-15T02:18:08.443Z,57.53
2018-01-15T02:20:36.769Z,47.40
2018-01-15T02:23:05.155Z,48.10
2018-01-15T02:25:33.487Z,54.97
2018-01-15T02:28:01.811Z,54.47
2018-01-15T02:30:30.125Z,57.17
2018-01-15T02:32:58.443Z,57.43
2018-01-15T02:35:27.535Z,55.23
2018-01-15T02:37:55.871Z,56.13
2018-01-15T02:40:24.184Z,52.47
2018-01-15T02:42:52.494Z,51.27
2018-01-15T02:45:20.799Z,55.00
2018-01-15T02:47:49.151Z,46.23
2018-01-15T02:50:18.227Z,43.27
2018-01-15T02:52:46.559Z,44.60
2018-01-15T02:55:14.862Z,39.20
2018-01-15T02:57:43.166Z,44.73
2018-01-15T03:00:11.478Z,42.97
2018-01-15T03:02:39.778Z,41.10
2018-01-15T03:05:08.844Z,41.83
2018-01-15T03:07:37.168Z,35.27
2018-01-15T03:10:05.499Z,45.07
2018-01-15T03:12:33.802Z,43.07
2018-01-15T03:15:02.114Z,41.40
2018-01-15T03:17:30.491Z,41.40
2018-01-15T03:19:58.806Z,43.20
2018-01-15T03:22:27.170Z,44.40
2018-01-15T03:24:55.488Z,47.97
2018-01-15T03:27:23.830Z,39.90
2018-01-15T03:29:52.160Z,45.00
2018-01-15T03:32:20.483Z,44.07
2018-01-15T03:34:48.800Z,40.13
2018-01-15T03:37:17.116Z,48.60
2018-01-15T03:39:45.411Z,47.23
2018-01-15T03:42:14.531Z,44.83
2018-01-15T03:44:42.842Z,47.00
2018-01-15T03:47:11.164Z,42.47
2018-01-15T03:49:39.484Z,45.30
2018-01-15T03:52:07.796Z,44.43
2018-01-15T03:54:36.098Z,44.13
2018-01-15T03:57:04.427Z,43.73
2018-01-15T03:59:32.736Z,50.77
2018-01-15T04:02:01.036Z,44.57
2018-01-15T04:04:30.154Z,42.13
2018-01-15T04:06:58.481Z,51.00
2018-01-15T04:09:26.804Z,45.17
2018-01-15T04:11:55.112Z,43.83
2018-01-15T04:14:24.180Z,47.37
2018-01-15T04:16:52.495Z,51.00
2018-01-15T04:19:21.895Z,53.00
2018-01-15T04:21:50.984Z,48.93
2018-01-15T04:24:19.280Z,41.70
2018-01-15T04:26:48.422Z,47.93
2018-01-15T04:29:17.388Z,53.23
2018-01-15T04:31:46.496Z,47.40
2018-01-15T04:34:14.808Z,49.87
2018-01-15T04:36:43.139Z,46.57
2018-01-15T04:39:11.451Z,53.63
2018-01-15T04:41:39.760Z,47.57
2018-01-15T04:44:08.069Z,49.87
2018-01-15T04:46:36.390Z,51.17
2018-01-15T04:49:04.706Z,53.30
2018-01-15T04:51:33.010Z,49.30
2018-01-15T04:54:02.161Z,51.07
2018-01-15T04:56:30.478Z,49.23
2018-01-15T04:58:58.773Z,57.23
2018-01-15T05:01:27.298Z,50.87
2018-01-15T05:03:56.370Z,52.47
2018-01-15T05:06:24.712Z,45.73
2018-01-15T05:08:53.005Z,49.80
2018-01-15T05:11:21.307Z,56.60
2018-01-15T05:13:49.634Z,48.03
2018-01-15T05:16:17.928Z,50.63
2018-01-15T05:18:46.247Z,53.53
2018-01-15T05:21:14.588Z,52.10
2018-01-15T05:23:42.877Z,54.13
2018-01-15T05:26:11.186Z,51.60
2018-01-15T05:28:39.491Z,54.33
2018-01-15T05:31:07.797Z,56.30
2018-01-15T05:33:36.095Z,55.50
2018-01-15T05:36:04.419Z,52.93
2018-01-15T05:38:32.711Z,52.00
2018-01-15T05:41:01.788Z,52.37
2018-01-15T05:43:30.112Z,56.90
2018-01-15T05:45:59.165Z,55.57
2018-01-15T05:48:27.477Z,54.43
2018-01-15T05:50:55.795Z,54.13
2018-01-15T05:53:24.097Z,56.93
2018-01-15T05:55:52.388Z,60.10
2018-01-15T05:58:20.682Z,54.53
2018-01-15T06:00:48.995Z,63.13
2018-01-15T06:03:18.716Z,64.43
2018-01-15T06:05:47.788Z,66.30
2018-01-15T06:08:16.090Z,59.20
2018-01-15T06:10:45.183Z,63.33
2018-01-15T06:13:14.250Z,65.63
2018-01-15T06:15:42.567Z,56.77
2018-01-15T06:18:11.654Z,58.87
2018-01-15T06:20:39.966Z,61.97
2018-01-15T06:23:08.273Z,59.43
2018-01-15T06:25:36.590Z,65.13
2018-01-15T06:28:04.947Z,58.80
2018-01-15T06:30:33.276Z,68.57
2018-01-15T06:33:02.337Z,62.53
2018-01-15T06:35:30.692Z,67.20
2018-01-15T06:37:59.016Z,69.03
2018-01-15T06:40:27.327Z,71.83
2018-01-15T06:42:56.398Z,69.37
2018-01-15T06:45:24.720Z,64.93
2018-01-15T06:47:53.065Z,71.50
2018-01-15T06:50:21.388Z,72.33
2018-01-15T06:52:49.700Z,70.70
2018-01-15T06:55:18.000Z,70.17
2018-01-15T06:57:46.326Z,66.47
2018-01-15T07:00:14.634Z,83.23
2018-01-15T07:02:42.964Z,78.10
2018-01-15T07:05:11.284Z,79.13
2018-01-15T07:07:39.596Z,75.53
2018-01-15T07:10:07.899Z,80.73
2018-01-15T07:12:36.222Z,82.10
2018-01-15T07:15:04.576Z,82.27
2018-01-15T07:17:32.852Z,80.77
2018-01-15T07:20:01.164Z,68.03
2018-01-15T07:22:29.466Z,77.87
2018-01-15T07:24:57.776Z,85.80
2018-01-15T07:27:26.084Z,72.73
2018-01-15T07:29:55.638Z,79.53
2018-01-15T07:32:23.940Z,73.10
2018-01-15T07:34:52.236Z,72.10
2018-01-15T07:37:20.554Z,76.10
2018-01-15T07:39:49.620Z,68.60
2018-01-15T07:42:17.948Z,62.27
2018-01-15T07:44:46.262Z,65.13
2018-01-15T07:47:14.566Z,66.70
2018-01-15T07:49:42.870Z,58.50
2018-01-15T07:52:11.972Z,57.30
2018-01-15T07:54:41.030Z,60.20
2018-01-15T07:57:09.375Z,60.23
2018-01-15T07:59:37.678Z,74.07
2018-01-15T08:02:06.000Z,62.50
2018-01-15T08:04:35.106Z,61.87
2018-01-15T08:07:03.419Z,62.10
2018-01-15T08:09:31.701Z,57.20
2018-01-15T08:11:59.998Z,58.67
2018-01-15T08:14:28.326Z,53.07
2018-01-15T08:16:56.654Z,55.40
2018-01-15T08:19:25.748Z,50.63
2018-01-15T08:21:54.068Z,46.97
2018-01-15T08:24:22.370Z,49.60
2018-01-15T08:26:50.691Z,47.03
2018-01-15T08:29:19.000Z,43.27
2018-01-15T08:31:47.330Z,43.17
2018-01-15T08:34:16.486Z,47.03
2018-01-15T08:36:44.791Z,48.63
2018-01-15T08:39:13.078Z,45.60
2018-01-15T08:41:41.400Z,53.13
2018-01-15T08:44:09.702Z,46.60
2018-01-15T08:46:38.784Z,45.67
2018-01-15T08:49:07.284Z,44.10
2018-01-15T08:51:35.604Z,35.37
2018-01-15T08:54:03.940Z,36.70
2018-01-15T08:56:32.267Z,32.77
2018-01-15T08:59:00.568Z,34.20
2018-01-15T09:01:29.638Z,32.77
2018-01-15T09:03:57.942Z,32.40
2018-01-15T09:06:27.024Z,32.57
2018-01-15T09:08:55.346Z,32.70
2018-01-15T09:11:23.665Z,32.80
2018-01-15T09:13:52.049Z,37.40
2018-01-15T09:16:20.377Z,32.33
2018-01-15T09:18:49.491Z,32.60
2018-01-15T09:21:17.806Z,29.73
2018-01-15T09:23:46.088Z,27.97
2018-01-15T09:26:14.402Z,30.73
2018-01-15T09:28:42.718Z,29.60
2018-01-15T09:31:11.080Z,28.13
2018-01-15T09:33:40.158Z,34.57
2018-01-15T09:36:08.462Z,29.50
2018-01-15T09:38:37.538Z,30.90
2018-01-15T09:41:05.850Z,33.53
2018-01-15T09:43:34.923Z,32.00
2018-01-15T09:46:03.236Z,41.23
2018-01-15T09:48:32.306Z,36.23
2018-01-15T09:51:00.622Z,36.07
2018-01-15T09:53:28.930Z,35.03
2018-01-15T09:55:57.247Z,39.80
2018-01-15T09:58:25.568Z,38.10
2018-01-15T10:00:53.897Z,41.53
2018-01-15T10:03:22.211Z,38.03
2018-01-15T10:05:51.309Z,40.30
2018-01-15T10:08:20.371Z,45.00
2018-01-15T10:10:48.693Z,43.50
2018-01-15T10:13:17.757Z,39.40
2018-01-15T10:15:46.089Z,40.83
2018-01-15T10:18:14.388Z,39.03
2018-01-15T10:20:42.691Z,41.60
2018-01-15T10:23:11.004Z,42.30
2018-01-15T10:25:39.323Z,42.83
2018-01-15T10:28:07.695Z,42.30
2018-01-15T10:30:36.063Z,46.67
2018-01-15T10:33:05.137Z,37.03
2018-01-15T10:35:33.452Z,38.50
2018-01-15T10:38:02.543Z,40.33
2018-01-15T10:40:31.617Z,37.40
2018-01-15T10:42:59.924Z,35.43
2018-01-15T10:45:29.011Z,34.23
2018-01-15T10:47:57.329Z,32.23
2018-01-15T10:50:25.635Z,30.73
2018-01-15T10:52:53.939Z,38.80
2018-01-15T10:55:22.256Z,34.07
2018-01-15T10:57:50.706Z,32.63
2018-01-15T11:00:19.041Z,31.13
2018-01-15T11:02:47.395Z,30.33
2018-01-15T11:05:15.689Z,34.87
2018-01-15T11:07:44.752Z,31.90
2018-01-15T11:10:13.078Z,27.60
2018-01-15T11:12:41.387Z,30.00
2018-01-15T11:15:09.739Z,27.77
2018-01-15T11:17:38.048Z,29.67
2018-01-15T11:20:06.367Z,32.70
2018-01-15T11:22:34.697Z,31.97
2018-01-15T11:25:03.014Z,31.83
2018-01-15T11:27:31.350Z,28.37
2018-01-15T11:29:59.644Z,30.43
2018-01-15T11:32:27.944Z,34.23
2018-01-15T11:34:56.247Z,37.57
2018-01-15T11:37:24.542Z,34.10
2018-01-15T11:39:52.964Z,36.83
2018-01-15T11:42:21.282Z,40.53
2018-01-15T11:44:49.604Z,32.33
2018-01-15T11:47:18.680Z,31.90
2018-01-15T11:49:46.964Z,31.90
2018-01-15T11:52:15.270Z,27.27
2018-01-15T11:54:44.335Z,33.77
2018-01-15T11:57:12.651Z,28.80
2018-01-15T11:59:41.730Z,31.90
2018-01-15T12:02:10.128Z,32.70
2018-01-15T12:04:39.237Z,32.23
2018-01-15T12:07:08.405Z,27.53
2018-01-15T12:09:36.790Z,26.40
2018-01-15T12:12:05.113Z,26.27
2018-01-15T12:14:33.431Z,30.77
2018-01-15T12:17:01.757Z,27.10
2018-01-15T12:19:30.863Z,20.97
2018-01-15T12:21:59.184Z,26.60
2018-01-15T12:24:27.486Z,27.00
2018-01-15T12:26:55.788Z,28.27
2018-01-15T12:29:24.101Z,23.57
2018-01-15T12:31:52.418Z,22.20
2018-01-15T12:34:20.718Z,26.73
2018-01-15T12:36:49.038Z,20.90
2018-01-15T12:39:17.355Z,25.20
2018-01-15T12:41:45.636Z,25.13
2018-01-15T12:44:14.015Z,23.63
2018-01-15T12:46:42.985Z,21.23
2018-01-15T12:49:11.312Z,21.60
2018-01-15T12:51:39.621Z,24.00
2018-01-15T12:54:07.924Z,21.03
2018-01-15T12:56:37.000Z,20.33
2018-01-15T12:59:05.301Z,17.80
2018-01-15T13:01:34.621Z,20.97
2018-01-15T13:04:02.926Z,21.47
2018-01-15T13:06:49.033Z,18.40
2018-01-15T13:09:17.357Z,24.50
2018-01-15T13:11:46.427Z,19.90
2018-01-15T13:14:15.100Z,25.60
2018-01-15T13:16:43.440Z,26.80
2018-01-15T13:19:11.763Z,18.23
2018-01-15T13:21:40.087Z,24.60
2018-01-15T13:24:09.726Z,22.30
2018-01-15T13:26:38.033Z,20.77
2018-01-15T13:29:06.325Z,23.80
2018-01-15T13:31:34.647Z,21.13
2018-01-15T13:34:03.705Z,22.40
2018-01-15T13:36:32.014Z,20.87
2018-01-15T13:39:01.149Z,21.27
2018-01-15T13:41:29.460Z,22.00
2018-01-15T13:43:57.745Z,20.00
2018-01-15T13:46:26.035Z,19.40
2018-01-15T13:48:54.330Z,23.07
2018-01-15T13:51:22.639Z,21.67
2018-01-15T13:53:51.778Z,21.37
2018-01-15T13:56:20.064Z,21.67
2018-01-15T13:58:48.373Z,22.03
2018-01-15T14:01:16.671Z,19.80
2018-01-15T14:03:45.773Z,22.00
2018-01-15T14:06:14.859Z,19.00
2018-01-15T14:08:43.179Z,19.90
2018-01-15T14:11:11.486Z,21.50
2018-01-15T14:13:39.883Z,20.60
2018-01-15T14:16:08.193Z,18.97
2018-01-15T14:18:37.281Z,17.93
2018-01-15T14:21:05.581Z,18.10
2018-01-15T14:23:34.660Z,20.03
2018-01-15T14:26:02.971Z,18.30
2018-01-15T14:28:31.297Z,19.93
2018-01-15T14:30:59.592Z,15.70
2018-01-15T14:33:27.924Z,16.93
2018-01-15T14:35:56.233Z,16.47
2018-01-15T14:38:24.533Z,21.13
2018-01-15T14:40:52.850Z,17.57
2018-01-15T14:43:21.942Z,19.20
2018-01-15T14:45:50.313Z,17.47
2018-01-15T14:48:18.609Z,16.87
2018-01-15T14:50:47.693Z,19.30
2018-01-15T14:53:16.029Z,20.00
2018-01-15T14:55:44.365Z,17.60
2018-01-15T14:58:14.284Z,19.23
2018-01-15T15:00:42.635Z,15.60
2018-01-15T15:03:10.930Z,15.30
2018-01-15T15:05:39.345Z,14.53
2018-01-15T15:08:08.432Z,18.83
2018-01-15T15:10:36.807Z,15.03
2018-01-15T15:13:05.175Z,17.93
2018-01-15T15:15:33.468Z,16.20
2018-01-15T15:18:01.796Z,15.10
2018-01-15T15:20:30.116Z,18.07
2018-01-15T15:22:58.470Z,18.23
2018-01-15T15:25:26.781Z,14.83
2018-01-15T15:27:55.078Z,17.90
2018-01-15T15:30:23.382Z,16.90
2018-01-15T15:32:52.511Z,18.40
2018-01-15T15:35:20.805Z,17.70
2018-01-15T15:37:49.163Z,16.77
2018-01-15T15:40:17.468Z,16.70
2018-01-15T15:42:45.764Z,18.60
2018-01-15T15:45:14.048Z,16.20
2018-01-15T15:47:42.357Z,19.80
2018-01-15T15:50:10.689Z,18.53
2018-01-15T15:52:39.084Z,16.30
2018-01-15T15:55:07.413Z,13.50
2018-01-15T15:57:35.700Z,18.20
2018-01-15T16:00:04.808Z,13.50
2018-01-15T16:02:33.117Z,12.20
2018-01-15T16:05:01.431Z,14.43
2018-01-15T16:07:29.743Z,12.47
2018-01-15T16:09:58.819Z,10.60
2018-01-15T16:12:27.137Z,11.60
2018-01-15T16:14:55.442Z,12.27
2018-01-15T16:17:23.771Z,9.83
2018-01-15T16:19:52.231Z,10.17
2018-01-15T16:22:33.067Z,10.10
2018-01-15T16:25:02.985Z,9.93
2018-01-15T16:27:31.293Z,10.23
2018-01-15T16:29:59.601Z,9.53
2018-01-15T16:32:27.904Z,9.63
2018-01-15T16:34:56.984Z,9.47
2018-01-15T16:37:25.287Z,8.63
2018-01-15T16:39:54.422Z,8.83
2018-01-15T16:42:22.736Z,8.60
2018-01-15T16:44:51.104Z,7.03
2018-01-15T16:47:19.378Z,7.60
2018-01-15T16:49:47.677Z,8.00
2018-01-15T16:52:16.028Z,7.60
2018-01-15T16:54:44.332Z,7.93
2018-01-15T16:57:12.634Z,8.27
2018-01-15T16:59:41.018Z,7.93
2018-01-15T17:02:09.291Z,7.60
2018-01-15T17:04:37.610Z,8.20
2018-01-15T17:07:06.686Z,9.00
2018-01-15T17:09:34.998Z,9.57
2018-01-15T17:12:03.313Z,8.47
2018-01-15T17:14:32.098Z,8.37
2018-01-15T17:17:01.130Z,8.03
2018-01-15T17:19:29.455Z,9.53
2018-01-15T17:21:57.753Z,9.87
2018-01-15T17:24:26.058Z,10.17
2018-01-15T17:26:54.383Z,10.60
2018-01-15T17:29:23.462Z,11.03
2018-01-15T17:31:51.760Z,10.70
2018-01-15T17:34:20.832Z,11.53
2018-01-15T17:36:49.116Z,14.00
2018-01-15T17:39:17.403Z,10.90
2018-01-15T17:41:45.742Z,13.53
2018-01-15T17:44:14.144Z,17.07
2018-01-15T17:46:42.476Z,17.30
2018-01-15T17:49:11.554Z,13.63
2018-01-15T17:51:41.261Z,16.50
2018-01-15T17:54:09.657Z,15.17
2018-01-15T17:56:37.973Z,17.00
2018-01-15T17:59:06.283Z,18.13
2018-01-15T18:01:34.622Z,17.67
2018-01-15T18:04:03.752Z,17.80
2018-01-15T18:06:32.066Z,20.50
2018-01-15T18:09:00.379Z,17.20
2018-01-15T18:11:29.451Z,21.87
2018-01-15T18:13:57.771Z,20.30
2018-01-15T18:16:26.070Z,21.73
2018-01-15T18:18:54.829Z,22.43
2018-01-15T18:21:24.713Z,26.97
2018-01-15T18:23:53.029Z,18.70
2018-01-15T18:26:22.126Z,20.67
2018-01-15T18:28:51.212Z,20.50
2018-01-15T18:31:19.529Z,21.57
2018-01-15T18:33:47.830Z,24.57
2018-01-15T18:36:16.151Z,23.50
2018-01-15T18:38:44.510Z,25.23
2018-01-15T18:41:13.600Z,31.13
2018-01-15T18:43:41.920Z,31.90
2018-01-15T18:46:11.918Z,31.10
2018-01-15T18:48:40.265Z,32.10
2018-01-15T18:51:08.856Z,31.57
2018-01-15T18:53:37.165Z,28.73
2018-01-15T18:56:05.468Z,32.97
2018-01-15T18:58:34.536Z,29.10
2018-01-15T19:01:02.861Z,24.10
2018-01-15T19:03:32.035Z,20.03
2018-01-15T19:06:00.351Z,23.10
2018-01-15T19:08:29.396Z,14.70
2018-01-15T19:10:57.723Z,14.63
2018-01-15T19:13:26.865Z,13.87
2018-01-15T19:15:55.425Z,19.07
2018-01-15T19:18:24.481Z,15.87
2018-01-15T19:20:53.168Z,13.87
2018-01-15T19:23:21.492Z,13.53
2018-01-15T19:25:50.555Z,9.73
2018-01-15T19:28:19.423Z,12.97
2018-01-15T19:30:47.871Z,9.27
2018-01-15T19:33:16.933Z,8.77
2018-01-15T19:35:45.660Z,10.90
2018-01-15T19:38:25.469Z,12.40
2018-01-15T19:40:54.765Z,11.07
2018-01-15T19:43:28.523Z,6.10
2018-01-15T19:46:02.413Z,10.23
2018-01-15T19:48:40.712Z,8.80
2018-01-15T19:51:14.718Z,13.47
2018-01-15T19:53:48.656Z,10.57
2018-01-15T19:59:24.907Z,12.43
2018-01-15T20:01:58.821Z,16.70
2018-01-15T20:04:34.194Z,16.43
2018-01-15T20:07:07.928Z,17.10
2018-01-15T20:09:41.678Z,9.77
2018-01-15T20:12:10.765Z,11.07
2018-01-15T20:14:39.125Z,15.40
2018-01-15T20:17:07.427Z,8.83
2018-01-15T20:19:35.725Z,12.10
2018-01-15T20:22:04.809Z,13.83
2018-01-15T20:24:33.188Z,14.23
2018-01-15T20:27:01.534Z,10.40
2018-01-15T20:29:30.066Z,6.63
2018-01-15T20:31:58.485Z,9.37
2018-01-15T20:34:26.796Z,8.63
2018-01-15T20:36:55.256Z,8.80
2018-01-15T20:39:23.576Z,16.53
2018-01-15T20:41:51.874Z,9.10
2018-01-15T20:44:20.152Z,11.73
2018-01-15T20:46:48.469Z,12.50
2018-01-15T20:49:16.800Z,9.17
2018-01-15T20:51:45.695Z,5.90
2018-01-15T20:54:14.007Z,18.40
2018-01-15T20:56:43.077Z,9.33
2018-01-15T20:59:11.410Z,12.10
2018-01-15T21:01:39.716Z,12.20
2018-01-15T21:04:08.026Z,11.27
2018-01-15T21:06:36.323Z,12.20
2018-01-15T21:09:04.630Z,13.00
2018-01-15T21:11:32.946Z,14.97
2018-01-15T21:14:01.240Z,14.20
2018-01-15T21:16:29.610Z,13.60
2018-01-15T21:18:58.621Z,11.13
2018-01-15T21:21:26.932Z,10.30
2018-01-15T21:23:56.589Z,13.20
2018-01-15T21:26:24.929Z,10.20
2018-01-15T21:28:54.015Z,9.00
2018-01-15T21:31:22.341Z,6.87
2018-01-15T21:33:50.693Z,10.33
2018-01-15T21:36:19.747Z,11.60
2018-01-15T21:38:48.063Z,9.17
2018-01-15T21:41:16.381Z,10.10
2018-01-15T21:43:44.661Z,7.03
2018-01-15T21:46:12.989Z,13.87
2018-01-15T21:48:41.329Z,7.53
2018-01-15T21:51:09.619Z,8.10
2018-01-15T21:53:37.911Z,6.60
2018-01-15T21:56:06.214Z,10.20
2018-01-15T21:58:34.525Z,7.50
2018-01-15T22:01:03.606Z,12.03
2018-01-15T22:03:31.926Z,7.57
2018-01-15T22:06:00.210Z,9.47
2018-01-15T22:08:28.513Z,13.03
2018-01-15T22:10:56.795Z,6.37
2018-01-15T22:13:25.087Z,5.93
2018-01-15T22:15:53.409Z,11.27
2018-01-15T22:18:22.513Z,11.13
2018-01-15T22:20:51.587Z,10.20
2018-01-15T22:23:19.883Z,8.70
2018-01-15T22:25:48.180Z,9.10
2018-01-15T22:28:17.239Z,11.23
2018-01-15T22:30:45.541Z,11.73
2018-01-15T22:33:13.840Z,11.67
2018-01-15T22:35:42.914Z,8.80
2018-01-15T22:38:11.259Z,7.23
2018-01-15T22:40:39.566Z,3.93
2018-01-15T22:43:08.645Z,10.70
2018-01-15T22:45:36.972Z,9.77
2018-01-15T22:48:05.274Z,5.37
2018-01-15T22:50:33.581Z,8.17
2018-01-15T22:53:01.867Z,6.60
2018-01-15T22:55:30.175Z,8.53
2018-01-15T22:57:59.247Z,7.93
2018-01-15T23:00:27.539Z,10.93
2018-01-15T23:02:55.830Z,9.87
2018-01-15T23:05:24.155Z,12.63
2018-01-15T23:07:53.214Z,10.50
2018-01-15T23:10:21.524Z,9.60
2018-01-15T23:12:50.597Z,8.27
2018-01-15T23:15:18.903Z,10.20
2018-01-15T23:17:47.201Z,10.93
2018-01-15T23:20:15.512Z,9.23
2018-01-15T23:22:43.805Z,11.00
2018-01-15T23:25:12.108Z,8.90
2018-01-15T23:27:40.396Z,6.63
2018-01-15T23:30:08.748Z,13.80
2018-01-15T23:32:37.042Z,8.10
2018-01-15T23:35:05.361Z,11.80
2018-01-15T23:37:34.460Z,12.03
2018-01-15T23:40:03.519Z,5.80
2018-01-15T23:42:31.855Z,13.27
2018-01-15T23:45:00.148Z,7.97
2018-01-15T23:47:28.483Z,11.43
2018-01-15T23:49:56.781Z,10.23
2018-01-15T23:52:25.864Z,13.93
2018-01-15T23:54:54.180Z,7.93
2018-01-15T23:57:22.518Z,8.53
2018-01-15T23:59:50.817Z,8.43
